Pagrindinis puslapis
METAR-TAF:

METAR-TAF

Oro uostai :

Chijas, Graikija

platuma: 38-20N, ilguma: 026-08E, Aukštis: 5 m

Dabartinis oras

Ataskaita buvo paskelbta 1 valandą ir 4 minutes, ne 16:50 UTC
Vėjas 16 kt iš Šiaurės
Temperatūra 25°C
Drėgmė 54%
Slėgis 1015 hPa
Matomumas 10 km arba daugiau
nėra debesų žemiau 1500 m ir nėra kamuolinių lietaus debesų

METAR: LGHI 151650Z 01016KT CAVOK 25/15 Q1015

Laikas: 20:54 (17:54 UTC)

Prognozė

Ataskaita buvo paskelbta 54 minutes, ne 17:00 UTC
Prognozė galioja nuo 15 metu 18 UTC su 16 metu 03 UTC
Vėjas 20 kt iš Šiaurės/Šiaurės Rytų
Matomumas 10 km arba daugiau
Mažai debesys ne aukštis 3000 ft

TAF: LGHI 151700Z 1518/1603 02020KT 9999 FEW030

Orai ataskaitas ir orų prognozės (METAR, TAF).

turimą stotys yra geltonos ir raudonos taškus žemėlapyje.

Perkelti pele per norėdami pamatyti stoties vardą.

Tada spustelėkite, norėdami matyti oro stebėjimo ir prognozės.

Norėdami pakeisti žemėlapį: spustelėkite ant žalios mygtukų su juodo kryžiaus žemyn,; žalią mygtuką su brūkšneliu, jei norite nutolinti; arba žalių rodyklių gretimoms žemėlapius.


METAR-TAF: